aviador You're here:

KTPA Decoded Metar

TAMPA in FL, USA
Report Time2017-10-20 15:53:00
UTC Time2017-10-20 16:05:01
Flight Rules vfr VFR
Wind060° at 10 Gusting to 16 kt
W.Decomp.*RWY 10: 8.2 kt HW 5.7 kt LCW
RWY 01: 5.7 kt HW 8.2 kt RCW
W.Rank060° ranks 6
Current wind is above 060° avg. (5.3)
Visibility9999 m
Phenomena:N/A
Clouds:Few 032 Hf
Scattered 250 Hf
Expected CloudBase > 3,600 ft AGL from Temp-Dew spread
CeilingNone
Temp28°C (ISA +13)
Dew Point19°C (58% RH)
Heat Index29.2°C
AAT27.6°C
QNH1020 hPa
Density Alt1,598 ft
Elevation36 ft
Report Wrong Elevation
Raw Report
METAR KTPA 201553Z 06010G16KT 10SM FEW032 SCT250 28/19 A3012 RMK AO2
SLP200 T02830189=

Extra information for KTPA:More info

Metar Taf Metar & Taf Last 4 Metars F.Rules Stats Wind Profile Meteogram Temp Stats Airport Information Weather charts Add Link Nearby VenuesMetar ALERT Operation Metar Decoded Social comments

AIRNAV info for KTPA